Time;durP1;ratioP1;P1;durP2;ratioP2;P2;SDS_P1;SDS_P2;PMS_P1;PMS_P2;Temp;Humidity;BMP_temperature;BMP_pressure;BME280_temperature;BME280_humidity;BME280_pressure;Samples;Min_cycle;Max_cycle;Signal;HPM_P1;HPM_P2
2021/11/19 00:02:02;;;;;;;19.88;10.68;;;;;;;7.34;75.30;100345.22;2621050;47;20038;-68
2021/11/19 00:04:34;;;;;;;18.98;11.15;;;;;;;7.35;75.01;100341.66;2621892;54;20034;-68
2021/11/19 00:07:04;;;;;;;25.40;11.07;;;;;;;7.34;74.79;100337.34;2621270;54;20026;-68
2021/11/19 00:09:34;;;;;;;24.60;12.75;;;;;;;7.38;75.05;100333.47;2622219;54;20030;-67
2021/11/19 00:12:04;;;;;;;22.55;11.77;;;;;;;7.42;74.78;100326.97;2622591;54;20031;-67
2021/11/19 00:14:36;;;;;;;22.20;10.63;;;;;;;7.39;75.01;100327.28;2621740;54;20071;-67
2021/11/19 00:17:08;;;;;;;25.25;11.80;;;;;;;7.37;75.30;100333.63;2620339;54;20034;-67
2021/11/19 00:19:40;;;;;;;20.63;11.73;;;;;;;7.40;75.11;100334.19;2619361;54;20019;-67
2021/11/19 00:22:13;;;;;;;24.95;11.60;;;;;;;7.44;75.34;100332.94;2618733;54;20030;-67
2021/11/19 00:24:43;;;;;;;25.42;11.73;;;;;;;7.42;75.10;100334.88;2619503;54;20033;-67
2021/11/19 00:27:16;;;;;;;18.50;11.00;;;;;;;7.46;75.22;100332.81;2618412;47;20038;-67
2021/11/19 00:29:50;;;;;;;27.80;12.68;;;;;;;7.49;74.67;100331.72;2619090;54;20030;-67
2021/11/19 00:32:21;;;;;;;22.48;12.63;;;;;;;7.34;75.11;100329.44;2618235;47;20026;-67
2021/11/19 00:34:51;;;;;;;20.05;11.52;;;;;;;7.36;75.15;100329.34;2618751;54;20035;-67
2021/11/19 00:37:21;;;;;;;30.52;11.50;;;;;;;7.31;75.29;100335.00;2618577;54;20037;-67
2021/11/19 00:39:51;;;;;;;21.55;11.05;;;;;;;7.28;75.37;100344.94;2618207;54;20031;-67
2021/11/19 00:42:21;;;;;;;25.70;12.20;;;;;;;7.33;75.17;100340.13;2618122;46;20035;-67
2021/11/19 00:44:53;;;;;;;26.38;11.88;;;;;;;7.35;75.45;100346.91;2618139;47;20034;-67
2021/11/19 00:47:23;;;;;;;27.65;12.73;;;;;;;7.41;75.55;100345.53;2619166;39;20433;-67
2021/11/19 00:49:55;;;;;;;20.98;11.70;;;;;;;7.43;75.27;100347.09;2618869;54;20034;-67
2021/11/19 00:52:25;;;;;;;27.25;11.70;;;;;;;7.41;75.72;100354.25;2618657;54;20026;-67
2021/11/19 00:54:56;;;;;;;23.77;12.38;;;;;;;7.39;75.18;100348.31;2618203;54;20036;-67
2021/11/19 00:57:26;;;;;;;22.02;11.52;;;;;;;7.35;75.46;100341.66;2618647;54;20038;-67
2021/11/19 00:59:58;;;;;;;22.73;11.95;;;;;;;7.39;75.42;100350.13;2618440;39;20438;-67
2021/11/19 01:02:29;;;;;;;25.67;12.50;;;;;;;7.48;75.38;100343.22;2619232;54;20037;-67
2021/11/19 01:05:02;;;;;;;29.85;13.40;;;;;;;7.45;75.30;100345.13;2618132;54;20030;-68
2021/11/19 01:07:32;;;;;;;30.10;13.65;;;;;;;7.45;75.65;100347.75;2618779;54;20030;-68
2021/11/19 01:10:09;;;;;;;23.52;11.75;;;;;;;7.45;75.69;100345.13;2618272;54;20026;-66
2021/11/19 01:12:40;;;;;;;23.55;12.88;;;;;;;7.50;75.87;100351.78;2618083;47;20035;-66
2021/11/19 01:15:17;;;;;;;29.23;13.27;;;;;;;7.56;75.59;100353.91;2618584;54;20031;-66
2021/11/19 01:17:51;;;;;;;27.15;12.43;;;;;;;7.55;75.16;100360.09;2618470;46;20042;-66
2021/11/19 01:20:25;;;;;;;27.33;12.57;;;;;;;7.53;75.38;100355.00;2620005;54;20038;-68
2021/11/19 01:22:57;;;;;;;19.92;11.40;;;;;;;7.55;75.39;100362.72;2618796;47;20031;-68
2021/11/19 01:25:30;;;;;;;29.52;12.93;;;;;;;7.54;75.22;100361.06;2618768;54;20046;-67
2021/11/19 01:28:01;;;;;;;26.42;12.80;;;;;;;7.60;75.49;100364.00;2618984;54;20038;-67
2021/11/19 01:30:37;;;;;;;27.48;13.35;;;;;;;7.61;75.49;100357.78;2618875;51;20170;-67
2021/11/19 01:33:08;;;;;;;23.65;12.68;;;;;;;7.62;75.56;100353.34;2618407;54;20030;-68
2021/11/19 01:35:57;;;;;;;24.08;11.77;;;;;;;7.58;75.43;100354.56;2619071;54;20030;-68
2021/11/19 01:38:43;;;;;;;23.55;12.10;;;;;;;7.61;75.63;100349.06;2619259;47;20038;-69
2021/11/19 01:41:25;;;;;;;24.38;11.80;;;;;;;7.63;75.43;100352.38;2619182;54;20043;-68
2021/11/19 01:43:57;;;;;;;24.67;11.68;;;;;;;7.65;75.26;100346.00;2618189;54;20034;-67
2021/11/19 01:46:31;;;;;;;27.55;13.57;;;;;;;7.68;75.47;100342.28;2618833;54;20045;-66
2021/11/19 01:49:05;;;;;;;25.90;12.57;;;;;;;7.69;75.72;100343.94;2618295;54;20026;-66
2021/11/19 01:51:43;;;;;;;23.73;12.98;;;;;;;7.70;75.58;100343.78;2618564;54;20054;-67
2021/11/19 01:54:20;;;;;;;24.33;12.07;;;;;;;7.67;75.45;100348.50;2619021;54;20069;-66
2021/11/19 01:56:55;;;;;;;25.98;13.25;;;;;;;7.63;75.86;100345.31;2618327;54;20035;-66
2021/11/19 01:59:30;;;;;;;23.15;12.68;;;;;;;7.66;75.92;100347.66;2618130;54;20038;-67
2021/11/19 02:02:06;;;;;;;26.08;13.20;;;;;;;7.68;75.73;100347.53;2618118;46;20550;-66
2021/11/19 02:04:53;;;;;;;27.17;14.73;;;;;;;7.66;75.55;100350.28;2618342;54;20634;-66
2021/11/19 02:07:26;;;;;;;31.48;14.00;;;;;;;7.68;75.63;100342.28;2617995;47;20055;-66
2021/11/19 02:10:16;;;;;;;27.90;14.23;;;;;;;7.63;75.95;100342.69;2618054;51;20030;-66
2021/11/19 02:12:58;;;;;;;30.02;13.05;;;;;;;7.62;75.86;100335.75;2621446;47;20022;-69
2021/11/19 02:15:32;;;;;;;29.90;14.27;;;;;;;7.61;75.81;100338.53;2622148;51;20034;-68
2021/11/19 02:18:13;;;;;;;31.10;14.43;;;;;;;7.61;75.90;100335.88;2621864;47;20086;-67
2021/11/19 02:20:59;;;;;;;27.35;14.27;;;;;;;7.55;76.58;100331.16;2622140;54;20030;-67
2021/11/19 02:23:35;;;;;;;32.78;14.70;;;;;;;7.47;76.60;100329.22;2621532;54;20030;-67
2021/11/19 02:26:11;;;;;;;30.10;13.98;;;;;;;7.44;76.69;100330.31;2621597;46;20056;-67
2021/11/19 02:28:44;;;;;;;32.25;15.00;;;;;;;7.49;77.30;100327.28;2620431;47;20030;-68
2021/11/19 02:31:17;;;;;;;26.38;14.88;;;;;;;7.52;77.26;100321.75;2620119;54;20576;-67
2021/11/19 02:33:52;;;;;;;31.80;14.35;;;;;;;7.56;77.04;100324.94;2620011;47;20055;-66
2021/11/19 02:36:25;;;;;;;32.28;13.90;;;;;;;7.57;76.88;100323.97;2620198;54;20037;-67
2021/11/19 02:39:05;;;;;;;31.05;14.40;;;;;;;7.58;76.83;100328.25;2618093;47;20042;-67
2021/11/19 02:41:42;;;;;;;30.65;14.93;;;;;;;7.58;76.72;100326.47;2618305;54;20054;-67
2021/11/19 02:44:14;;;;;;;35.45;15.35;;;;;;;7.59;76.80;100325.50;2618424;54;20019;-67
2021/11/19 02:46:47;;;;;;;25.50;14.32;;;;;;;7.56;76.97;100328.41;2618231;47;20033;-66
2021/11/19 02:49:20;;;;;;;30.40;14.40;;;;;;;7.50;77.33;100328.94;2617621;53;20030;-66
2021/11/19 02:51:51;;;;;;;31.88;13.95;;;;;;;7.49;77.84;100322.00;2617928;54;20034;-67
2021/11/19 02:54:29;;;;;;;30.10;15.18;;;;;;;7.47;77.62;100318.72;2617963;47;20046;-67
2021/11/19 02:57:02;;;;;;;26.70;13.70;;;;;;;7.52;77.46;100318.28;2617843;54;20034;-67
2021/11/19 02:59:33;;;;;;;30.10;15.00;;;;;;;7.53;77.57;100322.56;2618101;54;20027;-67
2021/11/19 03:02:07;;;;;;;27.27;14.68;;;;;;;7.51;77.82;100314.84;2618621;39;20427;-67
2021/11/19 03:04:43;;;;;;;32.25;14.73;;;;;;;7.53;77.90;100322.56;2617832;46;20022;-67
2021/11/19 03:07:13;;;;;;;32.97;14.73;;;;;;;7.53;78.21;100326.03;2618535;54;20053;-67
2021/11/19 03:09:45;;;;;;;31.40;15.68;;;;;;;7.52;77.89;100323.56;2617853;51;20034;-67
2021/11/19 03:12:19;;;;;;;32.85;16.42;;;;;;;7.49;78.01;100326.44;2617792;47;20062;-67
2021/11/19 03:14:51;;;;;;;31.00;14.88;;;;;;;7.52;78.48;100334.91;2618259;47;20029;-68
2021/11/19 03:17:22;;;;;;;29.33;15.98;;;;;;;7.53;78.10;100341.84;2617963;54;20151;-67
2021/11/19 03:19:57;;;;;;;27.48;14.95;;;;;;;7.58;78.19;100350.16;2617818;47;20022;-67
2021/11/19 03:22:31;;;;;;;27.25;15.50;;;;;;;7.60;77.71;100358.75;2617834;47;20050;-67
2021/11/19 03:25:02;;;;;;;26.15;14.65;;;;;;;7.62;77.97;100354.16;2617826;47;20027;-67
2021/11/19 03:27:32;;;;;;;25.80;14.77;;;;;;;7.59;77.88;100343.94;2617920;54;20030;-67
2021/11/19 03:30:11;;;;;;;25.25;15.57;;;;;;;7.58;78.14;100344.06;2617853;54;20023;-66
2021/11/19 03:32:41;;;;;;;28.73;14.85;;;;;;;7.60;78.05;100344.75;2617449;47;20027;-67
2021/11/19 03:35:16;;;;;;;26.52;13.90;;;;;;;7.59;77.82;100346.56;2617770;47;20026;-66
2021/11/19 03:37:47;;;;;;;31.17;16.48;;;;;;;7.60;78.30;100342.97;2617780;54;20570;-67
2021/11/19 03:40:21;;;;;;;28.55;14.77;;;;;;;7.63;77.97;100347.09;2618372;54;20046;-67
2021/11/19 03:42:54;;;;;;;29.33;15.18;;;;;;;7.61;78.54;100360.41;2617210;50;20070;-67
2021/11/19 03:45:28;;;;;;;33.35;15.10;;;;;;;7.60;78.32;100353.50;2617387;54;20158;-67
2021/11/19 03:47:59;;;;;;;28.52;15.07;;;;;;;7.66;78.63;100360.81;2617425;54;20142;-67
2021/11/19 03:50:35;;;;;;;30.52;15.40;;;;;;;7.63;78.30;100358.50;2617668;54;20038;-67
2021/11/19 03:53:06;;;;;;;28.77;14.20;;;;;;;7.64;78.73;100351.41;2617388;47;20112;-67
2021/11/19 03:55:37;;;;;;;29.70;14.35;;;;;;;7.62;78.35;100348.06;2617611;47;20046;-67
2021/11/19 03:58:08;;;;;;;25.63;14.95;;;;;;;7.68;78.56;100350.19;2618520;54;20045;-67
2021/11/19 04:00:43;;;;;;;27.10;14.07;;;;;;;7.70;78.73;100353.50;2618143;51;20031;-67
2021/11/19 04:03:15;;;;;;;25.70;13.75;;;;;;;7.67;78.68;100343.22;2617650;54;20038;-67
2021/11/19 04:05:49;;;;;;;28.98;15.43;;;;;;;7.65;78.62;100337.28;2617813;49;20035;-67
2021/11/19 04:08:19;;;;;;;;;;;;;;;7.61;78.77;100339.34;2617981;47;20055;-67
2021/11/19 04:11:00;;;;;;;28.35;14.48;;;;;;;7.61;79.12;100341.97;2617203;54;19954;-67
2021/11/19 04:13:30;;;;;;;27.95;15.45;;;;;;;7.63;78.74;100344.47;2618249;39;20442;-67
2021/11/19 04:16:05;;;;;;;25.23;14.60;;;;;;;7.68;79.25;100340.47;2617754;54;20034;-67
2021/11/19 04:18:35;;;;;;;28.63;14.18;;;;;;;7.67;79.24;100341.47;2618141;54;20554;-67
2021/11/19 04:21:09;;;;;;;29.85;15.75;;;;;;;7.69;79.37;100347.41;2618390;54;20034;-67
2021/11/19 04:23:40;;;;;;;28.42;14.85;;;;;;;7.63;79.23;100339.22;2619465;39;20476;-67
2021/11/19 04:26:12;;;;;;;27.98;14.68;;;;;;;7.64;79.43;100339.09;2618634;54;20082;-67
2021/11/19 04:28:43;;;;;;;26.50;14.20;;;;;;;7.60;79.28;100339.50;2618319;54;20597;-67
2021/11/19 04:31:26;;;;;;;21.85;13.23;;;;;;;7.65;79.30;100340.75;2617588;54;20530;-67
2021/11/19 04:33:57;;;;;;;26.05;13.88;;;;;;;7.62;79.10;100335.75;2617170;47;20030;-67
2021/11/19 04:36:29;;;;;;;24.27;14.15;;;;;;;7.59;79.46;100337.81;2617987;39;20434;-67
2021/11/19 04:38:59;;;;;;;22.45;14.35;;;;;;;7.62;79.13;100337.56;2617708;47;20039;-67
2021/11/19 04:41:29;;;;;;;27.23;14.23;;;;;;;7.63;79.31;100337.44;2616888;47;20039;-67
2021/11/19 04:43:59;;;;;;;25.35;14.38;;;;;;;7.64;78.93;100331.19;2617101;47;20034;-68
2021/11/19 04:46:36;;;;;;;29.02;14.77;;;;;;;7.64;79.18;100327.72;2618963;39;20547;-68
2021/11/19 04:49:07;;;;;;;25.02;13.88;;;;;;;7.60;78.83;100335.06;2617919;54;20026;-67
2021/11/19 04:51:42;;;;;;;24.73;14.57;;;;;;;7.57;79.37;100327.44;2617377;47;20030;-65
2021/11/19 04:54:13;;;;;;;28.98;14.80;;;;;;;7.55;79.07;100339.06;2617732;54;20026;-66
2021/11/19 04:56:44;;;;;;;24.30;14.57;;;;;;;7.52;79.10;100336.72;2618497;54;20042;-67
2021/11/19 04:59:15;;;;;;;25.50;14.55;;;;;;;7.50;79.60;100336.84;2618496;54;20030;-66
2021/11/19 05:01:48;;;;;;;23.13;13.60;;;;;;;7.56;79.12;100338.09;2618237;54;20026;-67
2021/11/19 05:04:46;;;;;;;25.30;14.23;;;;;;;7.56;79.52;100330.22;2618671;54;20026;-66
2021/11/19 05:07:19;;;;;;;21.10;13.80;;;;;;;7.57;79.23;100335.31;2619485;39;20410;-65
2021/11/19 05:09:49;;;;;;;26.73;14.95;;;;;;;7.61;79.41;100336.72;2621718;47;20037;-66
2021/11/19 05:12:23;;;;;;;25.20;14.38;;;;;;;7.58;78.94;100334.34;2619645;54;20123;-66
2021/11/19 05:14:54;;;;;;;27.33;14.45;;;;;;;7.56;79.19;100328.41;2619356;47;20126;-65
2021/11/19 05:17:24;;;;;;;20.73;13.75;;;;;;;7.61;79.38;100333.25;2620120;46;20182;-65
2021/11/19 05:19:58;;;;;;;24.33;13.27;;;;;;;7.61;78.98;100328.81;2621041;47;20534;-66
2021/11/19 05:22:31;;;;;;;22.85;13.73;;;;;;;7.60;78.98;100326.34;2621265;47;20037;-66
2021/11/19 05:25:02;;;;;;;20.52;14.07;;;;;;;7.62;79.20;100327.84;2621381;47;20034;-66
2021/11/19 05:27:31;;;;;;;21.73;14.00;;;;;;;7.61;78.89;100326.19;2620894;54;20026;-67
2021/11/19 05:30:01;;;;;;;22.48;14.23;;;;;;;7.67;79.17;100336.19;2621231;39;20407;-68
2021/11/19 05:32:43;;;;;;;20.92;13.40;;;;;;;7.67;79.14;100333.56;2621201;54;20038;-67
2021/11/19 05:35:14;;;;;;;18.75;12.40;;;;;;;7.64;79.04;100333.81;2618366;54;20125;-68
2021/11/19 05:37:47;;;;;;;22.00;13.85;;;;;;;7.66;78.96;100334.50;2617912;54;20030;-67
2021/11/19 05:40:21;;;;;;;24.50;13.68;;;;;;;7.69;79.38;100341.31;2618888;39;20469;-67
2021/11/19 05:42:52;;;;;;;23.45;13.88;;;;;;;7.70;78.94;100329.81;2617804;54;20141;-67
2021/11/19 05:45:24;;;;;;;22.42;13.88;;;;;;;7.74;79.20;100325.09;2618450;47;20079;-67
2021/11/19 05:48:06;;;;;;;23.05;14.20;;;;;;;7.80;79.32;100322.75;2618163;47;20038;-67
2021/11/19 05:50:42;;;;;;;21.40;13.68;;;;;;;7.78;78.75;100332.59;2617914;54;20041;-67
2021/11/19 05:53:17;;;;;;;22.00;14.85;;;;;;;7.72;78.71;100322.63;2617730;54;20061;-67
2021/11/19 05:55:49;;;;;;;23.27;14.15;;;;;;;7.74;78.64;100328.56;2618929;54;20038;-67
2021/11/19 05:58:20;;;;;;;22.75;13.45;;;;;;;7.73;78.83;100336.59;2618731;39;20483;-67
2021/11/19 06:00:54;;;;;;;22.75;13.68;;;;;;;7.70;78.54;100338.53;2620776;47;20026;-67
2021/11/19 06:03:37;;;;;;;22.00;14.13;;;;;;;7.78;78.74;100350.19;2622887;54;20026;-67
2021/11/19 06:06:20;;;;;;;22.10;13.57;;;;;;;7.78;78.63;100347.56;2623163;54;20019;-67
2021/11/19 06:09:15;;;;;;;19.98;14.30;;;;;;;7.76;78.59;100358.22;2626400;39;20398;-67
2021/11/19 06:11:48;;;;;;;21.83;13.70;;;;;;;7.76;78.66;100360.88;2622400;54;20019;-68
2021/11/19 06:14:22;;;;;;;21.13;13.70;;;;;;;7.84;78.53;100368.91;2622797;39;20470;-68
2021/11/19 06:16:54;;;;;;;21.27;13.83;;;;;;;7.86;78.79;100368.75;2622652;54;20310;-67
2021/11/19 06:19:32;;;;;;;23.75;14.65;;;;;;;7.85;78.41;100369.75;2622442;47;20066;-66
2021/11/19 06:22:05;;;;;;;22.27;14.13;;;;;;;7.80;78.73;100374.59;2622410;54;20053;-67
2021/11/19 06:24:42;;;;;;;21.85;14.25;;;;;;;7.85;78.55;100370.56;2623010;54;20338;-66
2021/11/19 06:27:14;;;;;;;17.92;12.63;;;;;;;7.86;78.20;100364.31;2622747;54;20030;-67
2021/11/19 06:29:46;;;;;;;18.70;12.73;;;;;;;7.85;78.40;100365.28;2623015;54;20022;-66
2021/11/19 06:32:16;;;;;;;19.63;13.73;;;;;;;7.83;78.23;100359.31;2621448;54;20050;-66
2021/11/19 06:34:47;;;;;;;25.65;16.30;;;;;;;7.84;78.55;100361.00;2619365;39;20403;-66
2021/11/19 06:37:18;;;;;;;19.77;13.70;;;;;;;7.86;78.69;100366.94;2618517;47;20549;-66
2021/11/19 06:40:05;;;;;;;20.25;14.13;;;;;;;7.91;78.38;100362.09;2618250;54;20030;-66
2021/11/19 06:43:04;;;;;;;20.48;13.77;;;;;;;7.95;78.56;100360.03;2619013;54;20031;-67
2021/11/19 06:45:52;;;;;;;20.27;12.82;;;;;;;7.92;78.60;100365.59;2620383;54;20057;-68
2021/11/19 06:48:48;;;;;;;16.83;12.07;;;;;;;7.91;78.13;100359.47;2623098;54;20030;-67
2021/11/19 06:51:37;;;;;;;18.75;12.63;;;;;;;7.84;78.05;100365.44;2624388;54;20046;-68
2021/11/19 06:54:25;;;;;;;18.88;13.18;;;;;;;7.80;78.61;100370.16;2621439;54;20064;-66
2021/11/19 06:57:19;;;;;;;19.42;13.45;;;;;;;7.77;78.29;100372.22;2617950;51;20034;-66
2021/11/19 06:59:50;;;;;;;21.38;14.30;;;;;;;7.71;78.52;100373.56;2617947;47;20035;-66
2021/11/19 07:02:21;;;;;;;18.67;13.32;;;;;;;7.70;78.69;100382.44;2617872;47;20041;-66
2021/11/19 07:04:51;;;;;;;23.85;13.82;;;;;;;7.69;78.84;100384.25;2617991;54;20116;-66
2021/11/19 07:07:21;;;;;;;24.30;14.50;;;;;;;7.71;78.99;100381.47;2617859;54;20027;-67
